Allegany, Oregon
Current Conditions -  °F | °C
As of 8:35 PM on Monday 20 Oct 2014 (Local Time) from KOTH Reporting Station
Broken Clouds Broken Clouds  
Wind Chill: 55°   Ceiling: 7500
Heat Index: 55°   Visibility: 10mi
Dew Point: 55°   Wind: 8mph
Humidity: 100%   Direction: 180°S
Pressure: 29.89"   Gusts: NA
Location:  43.43°N, 124.03°W
Report Text: KOTH 210335Z 18007KT 10SM FEW033 SCT045 BKN075 13/13 A2989 RMK AO1
Loading
Personal Weather Stations






























Interactive Weather Map
Tropical Storm Tracking
New forecast layout! Learn more

10-Day Weather Forecast

Advertisements
Track Severe Weather on mobile